Claremore, OK

7:48 PM CDT on September 28, 2016 (GMT -0500)
Claremore Regional

Weather History for KGCM - May, 2013

Change the Weather History Date:

Wednesday, May 22, 2013

  Actual Average (KTUL) Record (KTUL)
Temperature  
Mean Temperature 64 °F 71 °F  
Max Temperature 77 °F 81 °F 94 °F (2005)
Min Temperature 50 °F 61 °F 44 °F (1931)
Degree Days  
Heating Degree Days 2    
Cooling Degree Days 0 6  
Month to date cooling degree days 100  
Year to date cooling degree days 165  
Growing Degree Days 14 (Base 50)    
Moisture  
Dew Point 55 °F    
Average Humidity 79    
Maximum Humidity 100    
Minimum Humidity 47    
Precipitation  
Precipitation 0.00 in 0.19 in 2.10 in (1902)
Month to date precipitation 4.20  
Year to date precipitation 14.79  
Sea Level Pressure  
Sea Level Pressure 29.90 in    
Wind  
Wind Speed 4 mph (WSW)    
Max Wind Speed 10 mph    
Max Gust Speed -    
Visibility 8 miles    
Events Fog    
T = Trace of Precipitation, MM = Missing Value Source: NWS Daily Summary

Daily Weather History Graph

Daily Weather History Graph

Search for Another Location

Airport or City:

Trip Planner

Search our weather history database for the weather conditions in past years. The results will help you decide how hot, cold, wet, or windy it might be!

Date:

Astronomy

May. 22, 2013 Rise Set
Actual Time 6:10 AM CDT 8:27 PM CDT
Civil Twilight 5:41 AM CDT 8:56 PM CDT
Nautical Twilight 5:05 AM CDT 9:32 PM CDT
Astronomical Twilight 4:26 AM CDT 10:11 PM CDT
Moon 5:54 PM CDT (5/22) 4:10 AM CDT (5/22)
Length of Visible Light 15h 15m
Length of Day
14h 16m
Waxing Gibbous, 91% of the Moon is Illuminated
May 22
Waxing Gibbous
May 24
Full
May 31
Last Quarter
Jun 8
New
Jun 16
First Quarter

Hourly Weather History & Observations

Time (CDT) Temp. Dew Point Humidity Pressure Visibility Wind Dir Wind Speed Gust Speed Precip Events Conditions
12:15 AM 53.6 °F 53.6 °F 100% 29.85 in 7.0 mi South 4.6 mph - N/A   Clear
12:35 AM 53.6 °F 53.6 °F 100% 29.85 in 5.0 mi SSE 3.5 mph - N/A   Clear
12:55 AM 53.6 °F 53.6 °F 100% 29.85 in 4.0 mi SSE 3.5 mph - N/A   Clear
1:15 AM 53.6 °F 51.8 °F 94% 29.85 in 3.0 mi SSE 4.6 mph - N/A   Clear
1:35 AM 53.6 °F 53.6 °F 100% 29.85 in 2.0 mi South 4.6 mph - N/A   Clear
1:55 AM 53.6 °F 51.8 °F 94% 29.84 in 5.0 mi Calm Calm - N/A   Clear
2:15 AM 51.8 °F 51.8 °F 100% 29.84 in 0.5 mi Calm Calm - N/A Fog Fog
2:35 AM 53.6 °F 53.6 °F 100% 29.84 in 0.5 mi Calm Calm - N/A Fog Fog
2:55 AM 51.8 °F 51.8 °F 100% 29.84 in 0.5 mi South 3.5 mph - N/A Fog Fog
3:15 AM 51.8 °F 51.8 °F 100% 29.84 in 5.0 mi South 6.9 mph - N/A   Clear
3:35 AM 51.8 °F 51.8 °F 100% 29.85 in 2.0 mi South 4.6 mph - N/A   Clear
3:55 AM 51.8 °F 51.8 °F 100% 29.84 in 4.0 mi South 3.5 mph - N/A   Clear
4:15 AM 51.8 °F 51.8 °F 100% 29.85 in 2.5 mi SSE 5.8 mph - N/A   Clear
4:35 AM 51.8 °F 51.8 °F 100% 29.85 in 4.0 mi SSE 8.1 mph - N/A   Clear
4:55 AM 51.8 °F 51.8 °F 100% 29.84 in 7.0 mi SSE 4.6 mph - N/A   Clear
5:15 AM 51.8 °F 51.8 °F 100% 29.86 in 2.5 mi SSW 3.5 mph - N/A   Scattered Clouds
5:35 AM 51.8 °F 51.8 °F 100% 29.86 in 1.2 mi SSW 3.5 mph - N/A   Mostly Cloudy
5:55 AM 50.0 °F 50.0 °F 100% 29.87 in 1.2 mi NE 3.5 mph - N/A   Mist
6:15 AM 50.0 °F 50.0 °F 100% 29.87 in 0.2 mi Calm Calm - N/A Fog Fog
6:35 AM 50.0 °F 50.0 °F 100% 29.88 in 0.5 mi Calm Calm - N/A Fog Fog
6:55 AM 50.0 °F 50.0 °F 100% 29.89 in 0.2 mi Calm Calm - N/A Fog Fog
7:15 AM 53.6 °F 53.6 °F 100% 29.88 in 1.5 mi SSW 3.5 mph - N/A   Mist
7:35 AM 55.4 °F 55.4 °F 100% 29.88 in 10.0 mi SSW 6.9 mph - N/A   Clear
7:55 AM 55.4 °F 55.4 °F 100% 29.88 in 10.0 mi SW 5.8 mph - N/A   Clear
8:15 AM 55.4 °F 55.4 °F 100% 29.89 in 10.0 mi WSW 5.8 mph - N/A   Clear
8:35 AM 57.2 °F 57.2 °F 100% 29.90 in 10.0 mi WSW 5.8 mph - N/A   Clear
8:55 AM 59.0 °F 59.0 °F 100% 29.90 in 10.0 mi West 4.6 mph - N/A   Clear
9:15 AM 60.8 °F 59.0 °F 94% 29.91 in 10.0 mi West 5.8 mph - N/A   Clear
9:35 AM 62.6 °F 59.0 °F 88% 29.91 in 10.0 mi WNW 4.6 mph - N/A   Clear
9:55 AM 64.4 °F 59.0 °F 83% 29.92 in 10.0 mi West 5.8 mph - N/A   Clear
10:15 AM 64.4 °F 57.2 °F 77% 29.93 in 10.0 mi WNW 6.9 mph - N/A   Clear
10:35 AM 64.4 °F 55.4 °F 73% 29.93 in 10.0 mi NW 8.1 mph - N/A   Clear
10:55 AM 66.2 °F 55.4 °F 68% 29.93 in 10.0 mi NW 6.9 mph - N/A   Clear
11:15 AM 66.2 °F 53.6 °F 64% 29.93 in 10.0 mi West 3.5 mph - N/A   Clear
11:35 AM 68.0 °F 53.6 °F 60% 29.93 in 10.0 mi NW 6.9 mph - N/A   Clear
11:55 AM 69.8 °F 55.4 °F 60% 29.93 in 10.0 mi West 9.2 mph - N/A   Clear
12:15 PM 69.8 °F 55.4 °F 60% 29.93 in 10.0 mi NW 5.8 mph - N/A   Clear
12:35 PM 69.8 °F 55.4 °F 60% 29.93 in 10.0 mi NW 8.1 mph - N/A   Clear
12:55 PM 69.8 °F 55.4 °F 60% 29.93 in 10.0 mi WNW 10.4 mph - N/A   Clear
1:15 PM 71.6 °F 55.4 °F 57% 29.93 in 10.0 mi WNW 9.2 mph - N/A   Clear
1:35 PM 71.6 °F 55.4 °F 57% 29.93 in 10.0 mi West 10.4 mph - N/A   Clear
1:55 PM 71.6 °F 55.4 °F 57% 29.93 in 10.0 mi Calm Calm - N/A   Clear
2:15 PM 71.6 °F 55.4 °F 57% 29.93 in 7.0 mi West 6.9 mph - N/A   Clear
2:35 PM 73.4 °F 55.4 °F 53% 29.93 in 10.0 mi WSW 4.6 mph - N/A   Clear
2:55 PM 73.4 °F 55.4 °F 53% 29.92 in 10.0 mi WSW 4.6 mph - N/A   Clear
3:15 PM 73.4 °F 55.4 °F 53% 29.92 in 10.0 mi WSW 3.5 mph - N/A   Clear
3:35 PM 73.4 °F 55.4 °F 53% 29.91 in 10.0 mi NW 5.8 mph - N/A   Clear
3:55 PM 73.4 °F 55.4 °F 53% 29.91 in 10.0 mi NW 3.5 mph - N/A   Clear
4:15 PM 75.2 °F 57.2 °F 53% 29.91 in 10.0 mi West 5.8 mph - N/A   Clear
4:35 PM 75.2 °F 57.2 °F 53% 29.90 in 10.0 mi WSW 8.1 mph - N/A   Clear
4:55 PM 75.2 °F 55.4 °F 50% 29.90 in 10.0 mi West 9.2 mph - N/A   Clear
5:15 PM 77.0 °F 55.4 °F 47% 29.90 in 10.0 mi West 3.5 mph - N/A   Clear
5:35 PM 77.0 °F 55.4 °F 47% 29.89 in 10.0 mi West 8.1 mph - N/A   Clear
5:55 PM 77.0 °F 55.4 °F 47% 29.89 in 10.0 mi West 5.8 mph - N/A   Clear
6:15 PM 77.0 °F 55.4 °F 47% 29.89 in 10.0 mi Calm Calm - N/A   Clear
6:35 PM 77.0 °F 55.4 °F 47% 29.89 in 10.0 mi West 3.5 mph - N/A   Clear
6:55 PM 75.2 °F 55.4 °F 50% 29.90 in 10.0 mi West 5.8 mph - N/A   Clear
7:15 PM 73.4 °F 59.0 °F 61% 29.90 in 10.0 mi West 3.5 mph - N/A   Clear
7:35 PM 73.4 °F 59.0 °F 61% 29.91 in 10.0 mi Calm Calm - N/A   Clear
7:55 PM 73.4 °F 59.0 °F 61% 29.91 in 10.0 mi Calm Calm - N/A   Clear
8:15 PM 71.6 °F 60.8 °F 69% 29.92 in 10.0 mi Calm Calm - N/A   Clear
8:35 PM 69.8 °F 59.0 °F 68% 29.93 in 10.0 mi Calm Calm - N/A   Clear
8:55 PM 68.0 °F 59.0 °F 73% 29.93 in 10.0 mi Calm Calm - N/A   Clear
9:15 PM 64.4 °F 60.8 °F 88% 29.95 in 10.0 mi Calm Calm - N/A   Clear
9:35 PM 62.6 °F 59.0 °F 88% 29.95 in 10.0 mi Calm Calm - N/A   Clear
9:55 PM 62.6 °F 59.0 °F 88% 29.96 in 10.0 mi Calm Calm - N/A   Clear
10:15 PM 62.6 °F 59.0 °F 88% 29.96 in 10.0 mi Calm Calm - N/A   Clear
10:35 PM 62.6 °F 59.0 °F 88% 29.97 in 10.0 mi Calm Calm - N/A   Clear
10:55 PM 60.8 °F 59.0 °F 94% 29.97 in 10.0 mi Calm Calm - N/A   Clear
11:15 PM 60.8 °F 59.0 °F 94% 29.97 in 10.0 mi Calm Calm - N/A   Clear
11:35 PM 59.0 °F 57.2 °F 94% 29.97 in 10.0 mi Calm Calm - N/A   Clear
11:55 PM 60.8 °F 59.0 °F 94% 29.97 in 10.0 mi Calm Calm - N/A   Clear